Terminal Aerodrome Forecast
Issued by NWS

Home | Current Version | Previous Version | Graphics & Text | Print | Product List | Glossary On
Versions: 1 2 3 4 5 6 7 8 9 10 11 12 13 14 15 16 17 18 19 20 21
483
FTUS43 KMPX 231348 AAB
TAFAXN
TAF AMD
KAXN 231348Z 2314/2412 12014KT P6SM SCT015 OVC040
      TEMPO 2314/2316 2SM TSRA BR OVC010CB
     FM231700 14013G20KT P6SM BKN035
     FM232130 17011KT 2SM TSRA SCT020 BKN040CB
     FM232300 23008KT P6SM SCT040 BKN090
     FM240600 28009KT P6SM SKC=

USA.gov is the U.S. government's official web portal to all federal, state and local government web resources and services.